createdAt,value
2023-06-24T00:00:00.650Z,22.04
2023-06-24T00:01:00.407Z,22.04
2023-06-24T00:02:00.558Z,21.95
2023-06-24T00:03:00.383Z,21.95
2023-06-24T00:04:00.415Z,21.95
2023-06-24T00:05:00.302Z,21.95
2023-06-24T00:06:00.404Z,21.95
2023-06-24T00:07:00.663Z,21.85
2023-06-24T00:08:00.306Z,21.85
2023-06-24T00:09:00.301Z,21.85
2023-06-24T00:10:00.292Z,21.85
2023-06-24T00:11:01.171Z,21.85
2023-06-24T00:12:00.448Z,21.82
2023-06-24T00:13:00.295Z,21.82
2023-06-24T00:14:00.415Z,21.82
2023-06-24T00:15:00.311Z,21.82
2023-06-24T00:16:00.309Z,21.82
2023-06-24T00:17:00.523Z,21.78
2023-06-24T00:18:00.355Z,21.78
2023-06-24T00:19:00.314Z,21.78
2023-06-24T00:20:00.290Z,21.78
2023-06-24T00:21:00.320Z,21.78
2023-06-24T00:22:00.412Z,21.66
2023-06-24T00:23:00.422Z,21.66
2023-06-24T00:24:00.550Z,21.66
2023-06-24T00:25:00.325Z,21.66
2023-06-24T00:26:00.709Z,21.66
2023-06-24T00:27:00.326Z,21.61
2023-06-24T00:28:00.413Z,21.61
2023-06-24T00:29:00.416Z,21.61
2023-06-24T00:30:00.291Z,21.61
2023-06-24T00:31:00.288Z,21.61
2023-06-24T00:32:01.003Z,21.54
2023-06-24T00:33:00.329Z,21.54
2023-06-24T00:34:00.313Z,21.54
2023-06-24T00:35:00.298Z,21.54
2023-06-24T00:36:00.311Z,21.54
2023-06-24T00:37:00.310Z,21.47
2023-06-24T00:38:00.407Z,21.47
2023-06-24T00:39:00.292Z,21.47
2023-06-24T00:40:00.290Z,21.47
2023-06-24T00:41:00.411Z,21.47
2023-06-24T00:42:00.404Z,21.39
2023-06-24T00:43:00.631Z,21.39
2023-06-24T00:44:00.566Z,21.39
2023-06-24T00:45:00.290Z,21.39
2023-06-24T00:46:00.451Z,21.39
2023-06-24T00:47:00.805Z,21.33
2023-06-24T00:48:00.839Z,21.33
2023-06-24T00:49:00.405Z,21.33
2023-06-24T00:50:00.481Z,21.33
2023-06-24T00:51:00.403Z,21.33
2023-06-24T00:52:00.409Z,21.29
2023-06-24T00:53:00.450Z,21.29
2023-06-24T00:54:00.443Z,21.29
2023-06-24T00:55:00.283Z,21.29
2023-06-24T00:56:00.418Z,21.29
2023-06-24T00:57:00.312Z,21.27
2023-06-24T00:58:00.299Z,21.27
2023-06-24T00:59:02.445Z,21.27
2023-06-24T01:00:00.513Z,21.27
2023-06-24T01:01:00.527Z,21.27
2023-06-24T01:02:00.525Z,21.21
2023-06-24T01:03:00.688Z,21.21
2023-06-24T01:04:00.811Z,21.21
2023-06-24T01:05:00.298Z,21.21
2023-06-24T01:06:00.570Z,21.21
2023-06-24T01:07:01.457Z,21.14
2023-06-24T01:08:00.561Z,21.14
2023-06-24T01:09:00.816Z,21.14
2023-06-24T01:10:00.510Z,21.14
2023-06-24T01:11:00.520Z,21.14
2023-06-24T01:12:00.509Z,21.17
2023-06-24T01:13:00.293Z,21.17
2023-06-24T01:14:00.503Z,21.17
2023-06-24T01:15:01.168Z,21.17
2023-06-24T01:16:04.842Z,21.17
2023-06-24T01:17:06.622Z,21.08
2023-06-24T01:18:06.963Z,21.08
2023-06-24T01:19:10.223Z,21.08
2023-06-24T01:20:03.774Z,21.08
2023-06-24T01:21:03.570Z,21.08
2023-06-24T01:22:10.223Z,21.04
2023-06-24T01:23:10.204Z,21.04
2023-06-24T01:24:10.221Z,21.04
2023-06-24T01:25:00.281Z,21.04
2023-06-24T01:26:00.310Z,21.04
2023-06-24T01:27:10.205Z,21.00
2023-06-24T01:28:10.201Z,21.00
2023-06-24T01:29:10.203Z,21.00
2023-06-24T01:30:10.218Z,21.00
2023-06-24T01:31:10.270Z,21.00
2023-06-24T01:32:03.635Z,20.96
2023-06-24T01:33:04.497Z,20.96
2023-06-24T01:34:04.587Z,20.96
2023-06-24T01:35:02.394Z,20.96
2023-06-24T01:36:01.609Z,20.96
2023-06-24T01:37:01.346Z,20.94
2023-06-24T01:38:03.442Z,20.94
2023-06-24T01:39:03.156Z,20.94
2023-06-24T01:40:00.294Z,20.94
2023-06-24T01:41:02.965Z,20.94
2023-06-24T01:42:06.345Z,20.91
2023-06-24T01:43:03.296Z,20.91
2023-06-24T01:44:00.717Z,20.91
2023-06-24T01:45:00.418Z,20.91
2023-06-24T01:46:00.291Z,20.91
2023-06-24T01:47:02.812Z,20.86
2023-06-24T01:48:10.229Z,20.86
2023-06-24T01:49:01.862Z,20.86
2023-06-24T01:50:01.497Z,20.86
2023-06-24T01:51:03.395Z,20.86
2023-06-24T01:52:01.102Z,20.79
2023-06-24T01:53:04.038Z,20.79
2023-06-24T01:54:02.325Z,20.79
2023-06-24T01:55:01.497Z,20.79
2023-06-24T01:56:01.915Z,20.79
2023-06-24T01:57:03.101Z,20.76
2023-06-24T01:58:01.848Z,20.76
2023-06-24T01:59:02.071Z,20.76
2023-06-24T02:00:00.928Z,20.76
2023-06-24T02:01:01.346Z,20.76
2023-06-24T02:02:00.574Z,20.73
2023-06-24T02:03:01.118Z,20.73
2023-06-24T02:04:01.391Z,20.73
2023-06-24T02:05:01.017Z,20.73
2023-06-24T02:06:01.544Z,20.73
2023-06-24T02:07:01.768Z,20.66
2023-06-24T02:08:01.937Z,20.66
2023-06-24T02:09:01.013Z,20.66
2023-06-24T02:10:01.315Z,20.66
2023-06-24T02:11:01.569Z,20.66
2023-06-24T02:12:01.620Z,20.63
2023-06-24T02:13:00.767Z,20.63
2023-06-24T02:14:02.402Z,20.63
2023-06-24T02:15:01.572Z,20.63
2023-06-24T02:16:00.578Z,20.63
2023-06-24T02:17:01.055Z,20.53
2023-06-24T02:18:00.856Z,20.53
2023-06-24T02:19:00.983Z,20.53
2023-06-24T02:20:00.844Z,20.53
2023-06-24T02:21:01.474Z,20.53
2023-06-24T02:22:01.288Z,20.51
2023-06-24T02:23:00.586Z,20.51
2023-06-24T02:24:01.126Z,20.51
2023-06-24T02:25:00.505Z,20.51
2023-06-24T02:26:00.968Z,20.51
2023-06-24T02:27:00.386Z,20.43
2023-06-24T02:28:00.591Z,20.43
2023-06-24T02:29:00.509Z,20.43
2023-06-24T02:30:00.880Z,20.43
2023-06-24T02:31:00.884Z,20.43
2023-06-24T02:32:00.499Z,20.41
2023-06-24T02:33:00.489Z,20.41
2023-06-24T02:34:00.449Z,20.41
2023-06-24T02:35:00.428Z,20.41
2023-06-24T02:36:00.315Z,20.41
2023-06-24T02:37:00.312Z,20.38
2023-06-24T02:38:00.513Z,20.38
2023-06-24T02:39:00.545Z,20.38
2023-06-24T02:40:01.129Z,20.38
2023-06-24T02:41:00.314Z,20.38
2023-06-24T02:42:00.299Z,20.34
2023-06-24T02:43:00.444Z,20.34
2023-06-24T02:44:00.476Z,20.34
2023-06-24T02:45:01.009Z,20.34
2023-06-24T02:46:01.408Z,20.34
2023-06-24T02:47:00.557Z,20.30
2023-06-24T02:48:00.525Z,20.30
2023-06-24T02:49:00.811Z,20.30
2023-06-24T02:50:00.520Z,20.30
2023-06-24T02:51:02.093Z,20.30
2023-06-24T02:52:00.489Z,20.25
2023-06-24T02:53:01.469Z,20.25
2023-06-24T02:54:01.110Z,20.25
2023-06-24T02:55:00.502Z,20.25
2023-06-24T02:56:00.600Z,20.25
2023-06-24T02:57:01.871Z,20.21
2023-06-24T02:58:01.046Z,20.21
2023-06-24T02:59:00.407Z,20.21
2023-06-24T03:00:00.424Z,20.21
2023-06-24T03:01:00.319Z,20.21
2023-06-24T03:02:00.490Z,20.13
2023-06-24T03:03:01.712Z,20.13
2023-06-24T03:04:00.562Z,20.13
2023-06-24T03:05:00.897Z,20.13
2023-06-24T03:06:01.043Z,20.13
2023-06-24T03:07:00.548Z,20.09
2023-06-24T03:08:00.527Z,20.09
2023-06-24T03:09:00.417Z,20.09
2023-06-24T03:10:01.642Z,20.09
2023-06-24T03:11:00.324Z,20.09
2023-06-24T03:12:00.410Z,20.03
2023-06-24T03:13:00.295Z,20.03
2023-06-24T03:14:00.317Z,20.03
2023-06-24T03:15:00.313Z,20.03
2023-06-24T03:16:00.304Z,20.03
2023-06-24T03:17:00.404Z,19.97
2023-06-24T03:18:00.348Z,19.97
2023-06-24T03:19:00.448Z,19.97
2023-06-24T03:20:00.478Z,19.97
2023-06-24T03:21:00.296Z,19.97
2023-06-24T03:22:00.291Z,19.95
2023-06-24T03:23:00.285Z,19.95
2023-06-24T03:24:00.305Z,19.95
2023-06-24T03:25:00.305Z,19.95
2023-06-24T03:26:00.411Z,19.95
2023-06-24T03:27:00.407Z,19.93
2023-06-24T03:28:00.645Z,19.93
2023-06-24T03:29:00.308Z,19.93
2023-06-24T03:30:00.433Z,19.93
2023-06-24T03:31:01.282Z,19.93
2023-06-24T03:32:00.401Z,19.85
2023-06-24T03:33:00.383Z,19.85
2023-06-24T03:34:00.315Z,19.85
2023-06-24T03:35:00.486Z,19.85
2023-06-24T03:36:00.413Z,19.85
2023-06-24T03:37:00.305Z,19.82
2023-06-24T03:38:00.423Z,19.82
2023-06-24T03:39:00.300Z,19.82
2023-06-24T03:40:00.318Z,19.82
2023-06-24T03:41:00.300Z,19.82
2023-06-24T03:42:00.499Z,19.78
2023-06-24T03:43:00.414Z,19.78
2023-06-24T03:44:00.636Z,19.78
2023-06-24T03:45:00.291Z,19.78
2023-06-24T03:46:00.569Z,19.78
2023-06-24T03:47:00.295Z,19.75
2023-06-24T03:48:00.465Z,19.75
2023-06-24T03:49:00.306Z,19.75
2023-06-24T03:50:00.304Z,19.75
2023-06-24T03:51:00.412Z,19.75
2023-06-24T03:52:00.492Z,19.69
2023-06-24T03:53:00.597Z,19.69
2023-06-24T03:54:00.305Z,19.69
2023-06-24T03:55:00.294Z,19.69
2023-06-24T03:56:00.312Z,19.69
2023-06-24T03:57:00.290Z,19.64
2023-06-24T03:58:00.443Z,19.64
2023-06-24T03:59:00.303Z,19.64
2023-06-24T04:00:00.304Z,19.64
2023-06-24T04:01:01.955Z,19.64
2023-06-24T04:02:00.318Z,19.65
2023-06-24T04:03:00.336Z,19.65
2023-06-24T04:04:00.558Z,19.65
2023-06-24T04:05:00.283Z,19.65
2023-06-24T04:06:00.498Z,19.65
2023-06-24T04:07:00.318Z,19.66
2023-06-24T04:08:00.572Z,19.66
2023-06-24T04:09:00.330Z,19.66
2023-06-24T04:10:00.312Z,19.66
2023-06-24T04:11:00.305Z,19.66
2023-06-24T04:12:00.316Z,19.63
2023-06-24T04:13:00.334Z,19.63
2023-06-24T04:14:00.292Z,19.63
2023-06-24T04:15:00.526Z,19.63
2023-06-24T04:16:00.446Z,19.63
2023-06-24T04:17:00.520Z,19.69
2023-06-24T04:18:00.411Z,19.69
2023-06-24T04:19:00.528Z,19.69
2023-06-24T04:20:00.421Z,19.69
2023-06-24T04:21:00.307Z,19.69
2023-06-24T04:22:00.287Z,19.65
2023-06-24T04:23:00.288Z,19.65
2023-06-24T04:24:00.319Z,19.65
2023-06-24T04:25:00.487Z,19.65
2023-06-24T04:26:00.603Z,19.65
2023-06-24T04:27:00.308Z,19.72
2023-06-24T04:28:00.308Z,19.72
2023-06-24T04:29:00.412Z,19.72
2023-06-24T04:30:00.850Z,19.72
2023-06-24T04:31:00.340Z,19.72
2023-06-24T04:32:00.318Z,19.77
2023-06-24T04:33:00.346Z,19.77
2023-06-24T04:34:00.305Z,19.77
2023-06-24T04:35:00.315Z,19.77
2023-06-24T04:36:00.300Z,19.77
2023-06-24T04:37:00.310Z,19.82
2023-06-24T04:38:00.314Z,19.82
2023-06-24T04:39:00.303Z,19.82
2023-06-24T04:40:00.303Z,19.82
2023-06-24T04:41:00.313Z,19.82
2023-06-24T04:42:00.279Z,19.86
2023-06-24T04:43:00.404Z,19.86
2023-06-24T04:44:00.308Z,19.86
2023-06-24T04:45:00.412Z,19.86
2023-06-24T04:46:00.333Z,19.86
2023-06-24T04:47:00.534Z,19.88
2023-06-24T04:48:00.431Z,19.88
2023-06-24T04:49:00.508Z,19.88
2023-06-24T04:50:00.294Z,19.88
2023-06-24T04:51:00.306Z,19.88
2023-06-24T04:52:00.670Z,19.94
2023-06-24T04:53:00.404Z,19.94
2023-06-24T04:54:00.408Z,19.94
2023-06-24T04:55:00.300Z,19.94
2023-06-24T04:56:00.311Z,19.94
2023-06-24T04:57:00.344Z,19.97
2023-06-24T04:58:00.316Z,19.97
2023-06-24T04:59:00.725Z,19.97
2023-06-24T05:00:00.408Z,19.97
2023-06-24T05:01:00.419Z,19.97
2023-06-24T05:02:00.405Z,20.03
2023-06-24T05:03:00.321Z,20.03
2023-06-24T05:04:00.301Z,20.03
2023-06-24T05:05:00.427Z,20.03
2023-06-24T05:06:00.484Z,20.03
2023-06-24T05:07:00.547Z,20.09
2023-06-24T05:08:00.305Z,20.09
2023-06-24T05:09:00.302Z,20.09
2023-06-24T05:10:00.340Z,20.09
2023-06-24T05:11:00.412Z,20.09
2023-06-24T05:12:00.323Z,20.15
2023-06-24T05:13:00.321Z,20.15
2023-06-24T05:14:00.655Z,20.15
2023-06-24T05:15:00.382Z,20.15
2023-06-24T05:16:00.496Z,20.15
2023-06-24T05:17:00.445Z,20.21
2023-06-24T05:18:00.446Z,20.21
2023-06-24T05:19:00.313Z,20.21
2023-06-24T05:20:00.413Z,20.21
2023-06-24T05:21:00.336Z,20.21
2023-06-24T05:22:00.502Z,20.27
2023-06-24T05:23:00.299Z,20.27
2023-06-24T05:24:00.305Z,20.27
2023-06-24T05:25:00.288Z,20.27
2023-06-24T05:26:00.324Z,20.27
2023-06-24T05:27:03.629Z,20.30
2023-06-24T05:28:00.295Z,20.30
2023-06-24T05:29:00.415Z,20.30
2023-06-24T05:30:00.492Z,20.30
2023-06-24T05:31:00.418Z,20.30
2023-06-24T05:32:00.408Z,20.39
2023-06-24T05:33:00.405Z,20.39
2023-06-24T05:34:00.304Z,20.39
2023-06-24T05:35:00.293Z,20.39
2023-06-24T05:36:00.493Z,20.39
2023-06-24T05:37:00.506Z,20.44
2023-06-24T05:38:00.320Z,20.44
2023-06-24T05:39:00.502Z,20.44
2023-06-24T05:40:01.434Z,20.44
2023-06-24T05:41:00.307Z,20.44
2023-06-24T05:42:00.317Z,20.45
2023-06-24T05:43:00.496Z,20.45
2023-06-24T05:44:02.191Z,20.45
2023-06-24T05:45:00.332Z,20.45
2023-06-24T05:46:00.339Z,20.45
2023-06-24T05:47:00.298Z,20.52
2023-06-24T05:48:00.378Z,20.52
2023-06-24T05:49:00.475Z,20.52
2023-06-24T05:50:00.607Z,20.52
2023-06-24T05:51:00.480Z,20.52
2023-06-24T05:52:00.382Z,20.58
2023-06-24T05:53:00.320Z,20.58
2023-06-24T05:54:00.431Z,20.58
2023-06-24T05:55:00.313Z,20.58
2023-06-24T05:56:00.309Z,20.58
2023-06-24T05:57:00.415Z,20.64
2023-06-24T05:58:00.296Z,20.64
2023-06-24T05:59:00.289Z,20.64
2023-06-24T06:00:00.404Z,20.64
2023-06-24T06:01:00.314Z,20.64
2023-06-24T06:02:00.445Z,20.70
2023-06-24T06:03:00.433Z,20.70
2023-06-24T06:04:00.367Z,20.70
2023-06-24T06:05:00.292Z,20.70
2023-06-24T06:06:00.297Z,20.70
2023-06-24T06:07:00.417Z,20.85
2023-06-24T06:08:00.469Z,20.85
2023-06-24T06:09:00.309Z,20.85
2023-06-24T06:10:00.507Z,20.85
2023-06-24T06:11:00.591Z,20.85
2023-06-24T06:12:00.298Z,20.95
2023-06-24T06:13:00.318Z,20.95
2023-06-24T06:14:00.295Z,20.95
2023-06-24T06:15:00.428Z,20.95
2023-06-24T06:16:00.386Z,20.95
2023-06-24T06:17:00.293Z,21.07
2023-06-24T06:18:00.313Z,21.07
2023-06-24T06:19:00.416Z,21.07
2023-06-24T06:20:00.571Z,21.07
2023-06-24T06:21:00.297Z,21.07
2023-06-24T06:22:00.298Z,21.14
2023-06-24T06:23:00.297Z,21.14
2023-06-24T06:24:00.403Z,21.14
2023-06-24T06:25:00.295Z,21.14
2023-06-24T06:26:00.406Z,21.14
2023-06-24T06:27:00.494Z,21.20
2023-06-24T06:28:00.291Z,21.20
2023-06-24T06:29:00.296Z,21.20
2023-06-24T06:30:00.516Z,21.20
2023-06-24T06:31:00.435Z,21.20
2023-06-24T06:32:00.483Z,21.28
2023-06-24T06:33:00.434Z,21.28
2023-06-24T06:34:00.308Z,21.28
2023-06-24T06:35:00.322Z,21.28
2023-06-24T06:36:00.322Z,21.28
2023-06-24T06:37:00.351Z,21.33
2023-06-24T06:38:00.412Z,21.33
2023-06-24T06:39:00.293Z,21.33
2023-06-24T06:40:00.414Z,21.33
2023-06-24T06:41:00.497Z,21.33
2023-06-24T06:42:00.305Z,21.38
2023-06-24T06:43:00.290Z,21.38
2023-06-24T06:44:00.312Z,21.38
2023-06-24T06:45:00.321Z,21.38
2023-06-24T06:46:00.321Z,21.38
2023-06-24T06:47:00.305Z,21.41
2023-06-24T06:48:00.485Z,21.41
2023-06-24T06:49:00.408Z,21.41
2023-06-24T06:50:00.296Z,21.41
2023-06-24T06:51:00.321Z,21.41
2023-06-24T06:52:00.410Z,21.47
2023-06-24T06:53:00.510Z,21.47
2023-06-24T06:54:00.318Z,21.47
2023-06-24T06:55:00.306Z,21.47
2023-06-24T06:56:00.308Z,21.47
2023-06-24T06:57:02.050Z,21.63
2023-06-24T06:58:00.305Z,21.63
2023-06-24T06:59:00.317Z,21.63
2023-06-24T07:00:00.405Z,21.63
2023-06-24T07:01:00.371Z,21.63
2023-06-24T07:02:00.309Z,21.74
2023-06-24T07:03:00.490Z,21.74
2023-06-24T07:04:00.429Z,21.74
2023-06-24T07:05:00.306Z,21.74
2023-06-24T07:06:00.321Z,21.74
2023-06-24T07:07:00.325Z,21.85
2023-06-24T07:08:00.304Z,21.85
2023-06-24T07:09:00.313Z,21.85
2023-06-24T07:10:00.313Z,21.85
2023-06-24T07:11:00.316Z,21.85
2023-06-24T07:12:00.336Z,21.92
2023-06-24T07:13:00.724Z,21.92
2023-06-24T07:14:00.312Z,21.92
2023-06-24T07:15:00.299Z,21.92
2023-06-24T07:16:00.298Z,21.92
2023-06-24T07:17:00.505Z,22.04
2023-06-24T07:18:00.508Z,22.04
2023-06-24T07:19:00.296Z,22.04
2023-06-24T07:20:00.298Z,22.04
2023-06-24T07:21:00.520Z,22.04
2023-06-24T07:22:00.300Z,22.11
2023-06-24T07:23:00.310Z,22.11
2023-06-24T07:24:00.308Z,22.11
2023-06-24T07:25:00.413Z,22.11
2023-06-24T07:26:02.776Z,22.11
2023-06-24T07:27:00.292Z,22.30
2023-06-24T07:28:00.309Z,22.30
2023-06-24T07:29:08.460Z,22.30
2023-06-24T07:30:00.314Z,22.30
2023-06-24T07:31:00.347Z,22.30
2023-06-24T07:32:00.423Z,22.49
2023-06-24T07:33:00.359Z,22.49
2023-06-24T07:34:00.497Z,22.49
2023-06-24T07:35:00.309Z,22.49
2023-06-24T07:36:00.516Z,22.49
2023-06-24T07:37:05.470Z,22.68
2023-06-24T07:38:00.764Z,22.68
2023-06-24T07:39:00.410Z,22.68
2023-06-24T07:40:00.319Z,22.68
2023-06-24T07:41:00.288Z,22.68
2023-06-24T07:42:00.294Z,22.69
2023-06-24T07:43:00.300Z,22.69
2023-06-24T07:44:00.293Z,22.69
2023-06-24T07:45:00.488Z,22.69
2023-06-24T07:46:00.458Z,22.69
2023-06-24T07:47:00.338Z,22.80
2023-06-24T07:48:00.412Z,22.80
2023-06-24T07:49:00.526Z,22.80
2023-06-24T07:50:00.499Z,22.80
2023-06-24T07:51:00.504Z,22.80
2023-06-24T07:52:00.306Z,22.80
2023-06-24T07:53:00.349Z,22.80
2023-06-24T07:54:00.494Z,22.80
2023-06-24T07:55:00.303Z,22.80
2023-06-24T07:56:00.305Z,22.80
2023-06-24T07:57:00.297Z,22.96
2023-06-24T07:58:00.307Z,22.96
2023-06-24T07:59:00.291Z,22.96
2023-06-24T08:00:00.457Z,22.96
2023-06-24T08:01:00.408Z,22.96
2023-06-24T08:02:00.305Z,23.12
2023-06-24T08:03:00.418Z,23.12
2023-06-24T08:04:00.356Z,23.12
2023-06-24T08:05:00.413Z,23.12
2023-06-24T08:06:00.402Z,23.12
2023-06-24T08:07:00.426Z,23.25
2023-06-24T08:08:00.293Z,23.25
2023-06-24T08:09:00.509Z,23.25
2023-06-24T08:10:00.306Z,23.25
2023-06-24T08:11:00.448Z,23.25
2023-06-24T08:12:00.402Z,23.39
2023-06-24T08:13:00.310Z,23.39
2023-06-24T08:14:00.430Z,23.39
2023-06-24T08:15:00.306Z,23.39
2023-06-24T08:16:00.485Z,23.39
2023-06-24T08:17:00.308Z,23.46
2023-06-24T08:18:00.331Z,23.46
2023-06-24T08:19:00.305Z,23.46
2023-06-24T08:20:01.185Z,23.46
2023-06-24T08:21:00.409Z,23.46
2023-06-24T08:22:00.441Z,23.55
2023-06-24T08:23:00.309Z,23.55
2023-06-24T08:24:00.423Z,23.55
2023-06-24T08:25:00.318Z,23.55
2023-06-24T08:26:08.567Z,23.55
2023-06-24T08:27:00.317Z,23.71
2023-06-24T08:28:00.409Z,23.71
2023-06-24T08:29:01.675Z,23.71
2023-06-24T08:30:00.414Z,23.71
2023-06-24T08:31:00.469Z,23.71
2023-06-24T08:32:00.317Z,23.75
2023-06-24T08:33:00.446Z,23.75
2023-06-24T08:34:00.308Z,23.75
2023-06-24T08:35:00.410Z,23.75
2023-06-24T08:36:00.302Z,23.75
2023-06-24T08:37:00.577Z,23.88
2023-06-24T08:38:00.317Z,23.88
2023-06-24T08:39:00.306Z,23.88
2023-06-24T08:40:00.303Z,23.88
2023-06-24T08:41:00.481Z,23.88
2023-06-24T08:42:00.410Z,23.96
2023-06-24T08:43:00.316Z,23.96
2023-06-24T08:44:00.413Z,23.96
2023-06-24T08:45:00.325Z,23.96
2023-06-24T08:46:00.527Z,23.96
2023-06-24T08:47:00.420Z,23.97
2023-06-24T08:48:00.901Z,23.97
2023-06-24T08:49:03.099Z,23.97
2023-06-24T08:50:02.096Z,23.97
2023-06-24T08:51:00.826Z,23.97
2023-06-24T08:52:02.953Z,24.03
2023-06-24T08:53:02.659Z,24.03
2023-06-24T08:54:01.072Z,24.03
2023-06-24T08:55:01.055Z,24.03
2023-06-24T08:56:00.675Z,24.03
2023-06-24T08:57:00.413Z,24.17
2023-06-24T08:58:00.482Z,24.17
2023-06-24T08:59:00.623Z,24.17
2023-06-24T09:00:00.612Z,24.17
2023-06-24T09:01:01.535Z,24.17
2023-06-24T09:02:00.548Z,24.29
2023-06-24T09:03:00.424Z,24.29
2023-06-24T09:04:00.471Z,24.29
2023-06-24T09:05:00.321Z,24.29
2023-06-24T09:06:00.390Z,24.29
2023-06-24T09:07:00.520Z,24.41
2023-06-24T09:08:00.411Z,24.41
2023-06-24T09:09:00.299Z,24.41
2023-06-24T09:10:00.490Z,24.41
2023-06-24T09:11:00.414Z,24.41
2023-06-24T09:12:00.961Z,24.47
2023-06-24T09:13:00.757Z,24.47
2023-06-24T09:14:00.327Z,24.47
2023-06-24T09:15:00.330Z,24.47
2023-06-24T09:16:08.073Z,24.47
2023-06-24T09:17:01.225Z,24.63
2023-06-24T09:18:00.538Z,24.63
2023-06-24T09:19:00.301Z,24.63
2023-06-24T09:20:04.200Z,24.63
2023-06-24T09:21:01.319Z,24.63
2023-06-24T09:22:02.208Z,24.64
2023-06-24T09:23:01.323Z,24.64
2023-06-24T09:24:00.467Z,24.64
2023-06-24T09:25:00.792Z,24.64
2023-06-24T09:26:00.292Z,24.64
2023-06-24T09:27:00.691Z,24.85
2023-06-24T09:28:01.053Z,24.85
2023-06-24T09:29:00.299Z,24.85
2023-06-24T09:30:00.406Z,24.85
2023-06-24T09:31:19.037Z,24.85
2023-06-24T09:32:03.597Z,24.92
2023-06-24T09:33:00.352Z,24.92
2023-06-24T09:34:00.491Z,24.92
2023-06-24T09:35:04.683Z,24.92
2023-06-24T09:36:03.543Z,24.92
2023-06-24T09:37:00.796Z,25.06
2023-06-24T09:38:00.334Z,25.06
2023-06-24T09:39:11.322Z,25.06
2023-06-24T09:40:00.404Z,25.06
2023-06-24T09:41:13.194Z,25.06
2023-06-24T09:42:00.967Z,25.20
2023-06-24T09:43:00.389Z,25.20
2023-06-24T09:44:00.347Z,25.20
2023-06-24T09:45:04.173Z,25.20
2023-06-24T09:46:01.550Z,25.20
2023-06-24T09:47:00.582Z,25.33
2023-06-24T09:48:00.415Z,25.33
2023-06-24T09:49:00.306Z,25.33
2023-06-24T09:50:03.344Z,25.33
2023-06-24T09:51:01.061Z,25.33
2023-06-24T09:52:01.423Z,25.47
2023-06-24T09:53:00.590Z,25.47
2023-06-24T09:54:00.751Z,25.47
2023-06-24T09:55:04.040Z,25.47
2023-06-24T09:56:01.660Z,25.47
2023-06-24T09:57:01.966Z,25.63
2023-06-24T09:58:00.497Z,25.63
2023-06-24T09:59:00.602Z,25.63
2023-06-24T10:00:00.474Z,25.63
2023-06-24T10:01:02.483Z,25.63
2023-06-24T10:02:02.230Z,25.74
2023-06-24T10:03:01.424Z,25.74
2023-06-24T10:04:00.508Z,25.74
2023-06-24T10:05:00.388Z,25.74
2023-06-24T10:06:01.706Z,25.74
2023-06-24T10:07:00.528Z,25.84
2023-06-24T10:08:00.496Z,25.84
2023-06-24T10:09:01.001Z,25.84
2023-06-24T10:10:02.026Z,25.84
2023-06-24T10:11:00.432Z,25.84
2023-06-24T10:12:00.291Z,26.00
2023-06-24T10:13:00.409Z,26.00
2023-06-24T10:14:00.572Z,26.00
2023-06-24T10:15:00.535Z,26.00
2023-06-24T10:16:00.403Z,26.00
2023-06-24T10:17:01.184Z,26.14
2023-06-24T10:18:15.719Z,26.14
2023-06-24T10:19:01.374Z,26.14
2023-06-24T10:20:03.335Z,26.14
2023-06-24T10:21:00.308Z,26.14
2023-06-24T10:22:00.328Z,26.22
2023-06-24T10:23:05.659Z,26.22
2023-06-24T10:24:00.294Z,26.22
2023-06-24T10:25:00.995Z,26.22
2023-06-24T10:26:00.412Z,26.22
2023-06-24T10:27:01.592Z,26.34
2023-06-24T10:28:00.398Z,26.34
2023-06-24T10:29:07.658Z,26.34
2023-06-24T10:30:02.859Z,26.34
2023-06-24T10:31:00.343Z,26.34
2023-06-24T10:32:02.016Z,26.49
2023-06-24T10:33:00.325Z,26.49
2023-06-24T10:34:00.303Z,26.49
2023-06-24T10:35:00.412Z,26.49
2023-06-24T10:36:00.643Z,26.49
2023-06-24T10:37:02.762Z,26.53
2023-06-24T10:38:00.559Z,26.53
2023-06-24T10:39:00.409Z,26.53
2023-06-24T10:40:00.579Z,26.53
2023-06-24T10:41:10.215Z,26.53
2023-06-24T10:42:10.211Z,26.61
2023-06-24T10:43:00.760Z,26.61
2023-06-24T10:44:10.207Z,26.61
2023-06-24T10:45:01.804Z,26.61
2023-06-24T10:46:00.651Z,26.61
2023-06-24T10:47:00.389Z,26.84
2023-06-24T10:48:00.309Z,26.84
2023-06-24T10:49:00.306Z,26.84
2023-06-24T10:50:00.327Z,26.84
2023-06-24T10:51:00.294Z,26.84
2023-06-24T10:52:00.457Z,26.75
2023-06-24T10:53:00.970Z,26.75
2023-06-24T10:54:00.578Z,26.75
2023-06-24T10:55:00.298Z,26.75
2023-06-24T10:56:00.474Z,26.75
2023-06-24T10:57:00.508Z,26.71
2023-06-24T10:58:08.625Z,26.71
2023-06-24T10:59:00.752Z,26.71
2023-06-24T11:00:01.525Z,26.71
2023-06-24T11:01:08.420Z,26.71
2023-06-24T11:02:00.548Z,26.97
2023-06-24T11:03:10.312Z,26.97
2023-06-24T11:04:05.153Z,26.97
2023-06-24T11:05:01.177Z,26.97
2023-06-24T11:06:04.058Z,26.97
2023-06-24T11:07:01.177Z,27.18
2023-06-24T11:08:00.292Z,27.18
2023-06-24T11:09:01.875Z,27.18
2023-06-24T11:10:02.706Z,27.18
2023-06-24T11:11:00.412Z,27.18
2023-06-24T11:12:02.377Z,27.26
2023-06-24T11:13:07.579Z,27.26
2023-06-24T11:14:00.515Z,27.26
2023-06-24T11:15:03.657Z,27.26
2023-06-24T11:16:00.522Z,27.26
2023-06-24T11:17:01.886Z,27.31
2023-06-24T11:18:02.237Z,27.31
2023-06-24T11:19:01.181Z,27.31
2023-06-24T11:20:00.766Z,27.31
2023-06-24T11:21:00.290Z,27.31
2023-06-24T11:22:00.694Z,27.38
2023-06-24T11:23:00.309Z,27.38
2023-06-24T11:24:01.113Z,27.38
2023-06-24T11:25:00.282Z,27.38
2023-06-24T11:26:02.775Z,27.38
2023-06-24T11:27:00.490Z,27.50
2023-06-24T11:28:00.305Z,27.50
2023-06-24T11:29:00.282Z,27.50
2023-06-24T11:30:00.968Z,27.50
2023-06-24T11:31:06.239Z,27.50
2023-06-24T11:32:01.448Z,27.61
2023-06-24T11:33:00.319Z,27.61
2023-06-24T11:34:00.304Z,27.61
2023-06-24T11:35:00.400Z,27.61
2023-06-24T11:36:00.303Z,27.61
2023-06-24T11:37:10.203Z,27.66
2023-06-24T11:38:00.298Z,27.66
2023-06-24T11:39:00.407Z,27.66
2023-06-24T11:40:01.277Z,27.66
2023-06-24T11:41:00.508Z,27.66
2023-06-24T11:42:00.405Z,27.76
2023-06-24T11:43:00.719Z,27.76
2023-06-24T11:44:00.425Z,27.76
2023-06-24T11:45:01.639Z,27.76
2023-06-24T11:46:00.416Z,27.76
2023-06-24T11:47:08.019Z,27.86
2023-06-24T11:48:02.303Z,27.86
2023-06-24T11:49:04.729Z,27.86
2023-06-24T11:50:00.693Z,27.86
2023-06-24T11:51:00.320Z,27.86
2023-06-24T11:52:00.312Z,27.77
2023-06-24T11:53:00.297Z,27.77
2023-06-24T11:54:03.483Z,27.77
2023-06-24T11:55:00.498Z,27.77
2023-06-24T11:56:00.404Z,27.77
2023-06-24T11:57:00.307Z,28.02
2023-06-24T11:58:01.208Z,28.02
2023-06-24T11:59:00.288Z,28.02
2023-06-24T12:00:00.449Z,28.02
2023-06-24T12:01:00.295Z,28.02
2023-06-24T12:02:00.304Z,27.99
2023-06-24T12:03:01.681Z,27.99
2023-06-24T12:04:00.650Z,27.99
2023-06-24T12:05:02.156Z,27.99
2023-06-24T12:06:00.408Z,27.99
2023-06-24T12:07:00.544Z,27.99
2023-06-24T12:08:01.360Z,27.99
2023-06-24T12:09:00.302Z,27.99
2023-06-24T12:10:00.313Z,27.99
2023-06-24T12:11:00.302Z,27.99
2023-06-24T12:12:00.297Z,28.07
2023-06-24T12:13:01.014Z,28.07
2023-06-24T12:14:00.300Z,28.07
2023-06-24T12:15:00.304Z,28.07
2023-06-24T12:16:00.309Z,28.07
2023-06-24T12:17:00.302Z,28.05
2023-06-24T12:18:00.894Z,28.05
2023-06-24T12:19:00.316Z,28.05
2023-06-24T12:20:00.311Z,28.05
2023-06-24T12:21:00.296Z,28.05
2023-06-24T12:22:00.296Z,28.11
2023-06-24T12:23:00.418Z,28.11
2023-06-24T12:24:00.533Z,28.11
2023-06-24T12:25:00.306Z,28.11
2023-06-24T12:26:00.289Z,28.11
2023-06-24T12:27:00.320Z,28.19
2023-06-24T12:28:00.300Z,28.19
2023-06-24T12:29:00.316Z,28.19
2023-06-24T12:30:00.447Z,28.19
2023-06-24T12:31:00.406Z,28.19
2023-06-24T12:32:00.507Z,28.24
2023-06-24T12:33:00.747Z,28.24
2023-06-24T12:34:00.312Z,28.24
2023-06-24T12:35:00.310Z,28.24
2023-06-24T12:36:00.408Z,28.24
2023-06-24T12:37:00.298Z,28.10
2023-06-24T12:38:00.321Z,28.10
2023-06-24T12:39:00.290Z,28.10
2023-06-24T12:40:00.790Z,28.10
2023-06-24T12:41:00.297Z,28.10
2023-06-24T12:42:00.314Z,28.14
2023-06-24T12:43:00.297Z,28.14
2023-06-24T12:44:00.313Z,28.14
2023-06-24T12:45:00.306Z,28.14
2023-06-24T12:46:00.314Z,28.14
2023-06-24T12:47:00.423Z,28.28
2023-06-24T12:48:00.414Z,28.28
2023-06-24T12:49:00.407Z,28.28
2023-06-24T12:50:00.357Z,28.28
2023-06-24T12:51:00.446Z,28.28
2023-06-24T12:52:01.106Z,28.23